createdAt,value
2022-11-30T00:01:00.455Z,2.20
2022-11-30T00:06:07.837Z,2.10
2022-11-30T00:11:14.654Z,2.10
2022-11-30T00:16:17.351Z,2.10
2022-11-30T00:21:20.350Z,2.10
2022-11-30T00:26:22.975Z,2.10
2022-11-30T00:31:25.410Z,2.10
2022-11-30T00:36:27.923Z,2.00
2022-11-30T00:41:30.278Z,2.00
2022-11-30T00:46:32.635Z,2.00
2022-11-30T00:51:34.995Z,2.00
2022-11-30T00:56:37.299Z,1.90
2022-11-30T01:01:39.670Z,1.90
2022-11-30T01:06:42.023Z,1.90
2022-11-30T01:11:44.353Z,1.90
2022-11-30T01:16:48.065Z,1.90
2022-11-30T01:21:53.695Z,1.90
2022-11-30T01:26:56.850Z,1.90
2022-11-30T01:31:59.313Z,1.90
2022-11-30T01:37:01.616Z,1.80
2022-11-30T01:42:04.096Z,1.70
2022-11-30T01:47:11.591Z,1.60
2022-11-30T01:52:20.710Z,1.60
2022-11-30T01:57:46.466Z,1.50
2022-11-30T02:02:56.061Z,1.50
2022-11-30T02:07:59.060Z,1.40
2022-11-30T02:13:29.675Z,1.40
2022-11-30T02:19:30.497Z,1.40
2022-11-30T02:25:18.397Z,1.20
2022-11-30T02:30:23.077Z,1.10
2022-11-30T02:35:38.901Z,1.60
2022-11-30T02:40:41.242Z,1.40
2022-11-30T02:46:10.872Z,1.10
2022-11-30T02:51:18.691Z,1.10
2022-11-30T02:56:22.257Z,1.10
2022-11-30T03:01:25.026Z,1.00
2022-11-30T03:06:27.421Z,0.90
2022-11-30T03:11:29.726Z,1.00
2022-11-30T03:16:32.298Z,0.90
2022-11-30T03:21:34.655Z,1.00
2022-11-30T03:26:37.536Z,0.90
2022-11-30T03:31:39.923Z,0.90
2022-11-30T03:36:42.371Z,0.80
2022-11-30T03:41:44.681Z,0.90
2022-11-30T03:46:47.059Z,1.00
2022-11-30T03:51:49.430Z,0.90
2022-11-30T03:56:51.815Z,0.90
2022-11-30T04:01:54.199Z,1.20
2022-11-30T04:06:56.544Z,0.90
2022-11-30T04:11:59.186Z,0.90
2022-11-30T04:17:01.523Z,0.90
2022-11-30T04:22:03.903Z,0.90
2022-11-30T04:27:06.423Z,0.90
2022-11-30T04:32:08.725Z,0.80
2022-11-30T04:37:11.030Z,0.80
2022-11-30T04:42:13.363Z,0.80
2022-11-30T04:47:15.843Z,0.80
2022-11-30T04:52:18.170Z,0.80
2022-11-30T04:57:20.482Z,0.70
2022-11-30T05:02:22.920Z,0.70
2022-11-30T05:07:25.233Z,1.60
2022-11-30T05:12:27.652Z,0.80
2022-11-30T05:17:30.152Z,0.80
2022-11-30T05:22:35.035Z,0.80
2022-11-30T05:27:38.359Z,0.90
2022-11-30T05:32:40.818Z,1.20
2022-11-30T05:37:43.126Z,0.80
2022-11-30T05:42:45.452Z,0.70
2022-11-30T05:47:47.807Z,0.70
2022-11-30T05:52:55.191Z,0.70
2022-11-30T05:57:57.710Z,0.70
2022-11-30T06:03:00.386Z,0.60
2022-11-30T06:08:03.154Z,0.70
2022-11-30T06:13:09.853Z,0.70
2022-11-30T06:18:13.377Z,0.80
2022-11-30T06:23:15.669Z,0.80
2022-11-30T06:28:18.320Z,0.80
2022-11-30T06:33:23.889Z,0.70
2022-11-30T06:38:26.363Z,0.60
2022-11-30T06:43:33.623Z,0.60
2022-11-30T06:48:36.767Z,0.70
2022-11-30T06:53:39.217Z,0.70
2022-11-30T06:58:42.298Z,0.60
2022-11-30T07:03:45.296Z,0.60
2022-11-30T07:08:47.715Z,0.60
2022-11-30T07:13:50.088Z,0.50
2022-11-30T07:18:52.422Z,0.50
2022-11-30T07:24:13.162Z,0.60
2022-11-30T07:29:15.745Z,0.60
2022-11-30T07:34:18.685Z,0.80
2022-11-30T07:39:21.041Z,0.70
2022-11-30T07:44:23.361Z,0.60
2022-11-30T07:49:25.749Z,0.60
2022-11-30T07:54:28.065Z,0.70
2022-11-30T07:59:30.408Z,0.70
2022-11-30T08:04:32.778Z,0.70
2022-11-30T08:09:35.629Z,0.80
2022-11-30T08:15:11.019Z,0.80
2022-11-30T08:20:03.849Z,0.80
2022-11-30T08:25:06.730Z,0.80
2022-11-30T08:30:10.100Z,0.80
2022-11-30T08:35:12.695Z,0.90
2022-11-30T08:40:15.268Z,0.90
2022-11-30T08:45:17.694Z,0.90
2022-11-30T08:50:20.073Z,0.80
2022-11-30T08:55:22.540Z,0.80
2022-11-30T09:00:24.952Z,1.00
2022-11-30T09:05:27.270Z,0.90
2022-11-30T09:10:29.605Z,0.90
2022-11-30T09:15:32.672Z,0.90
2022-11-30T09:20:36.008Z,0.00
2022-11-30T09:25:38.389Z,0.90
2022-11-30T09:30:40.910Z,0.90
2022-11-30T09:35:43.356Z,1.00
2022-11-30T09:40:49.729Z,1.00
2022-11-30T09:45:56.979Z,0.90
2022-11-30T09:51:07.696Z,1.10
2022-11-30T09:56:32.203Z,1.10
2022-11-30T10:01:37.441Z,1.20
2022-11-30T10:06:52.015Z,1.10
2022-11-30T10:12:13.894Z,1.20
2022-11-30T10:17:37.272Z,1.20
2022-11-30T10:22:58.435Z,1.10
2022-11-30T10:33:53.217Z,1.10
2022-11-30T10:39:32.786Z,1.10
2022-11-30T10:44:40.705Z,1.10
2022-11-30T10:49:48.345Z,1.20
2022-11-30T10:54:56.873Z,1.10
2022-11-30T11:00:06.645Z,1.00
2022-11-30T11:05:27.966Z,1.00
2022-11-30T11:10:34.842Z,0.90
2022-11-30T11:15:59.891Z,1.00
2022-11-30T11:21:21.084Z,1.00
2022-11-30T11:26:25.903Z,1.00
2022-11-30T11:31:46.513Z,1.00
2022-11-30T11:37:08.017Z,0.90
2022-11-30T11:42:22.575Z,1.00
2022-11-30T11:47:28.918Z,1.00
2022-11-30T11:52:31.364Z,1.00
2022-11-30T11:57:53.498Z,1.00
2022-11-30T12:03:01.990Z,1.00
2022-11-30T12:08:40.356Z,1.00
2022-11-30T12:13:44.215Z,1.00
2022-11-30T12:19:10.121Z,1.00
2022-11-30T12:24:39.736Z,1.10
2022-11-30T12:29:55.738Z,1.00
2022-11-30T12:35:22.781Z,1.10
2022-11-30T12:40:59.473Z,1.00
2022-11-30T12:46:36.863Z,1.00
2022-11-30T12:52:09.871Z,1.00
2022-11-30T12:57:26.974Z,1.00
2022-11-30T13:02:38.102Z,1.10
2022-11-30T13:07:46.257Z,1.00
2022-11-30T13:12:52.360Z,0.90
2022-11-30T13:17:55.726Z,0.90
2022-11-30T13:23:39.026Z,0.80
2022-11-30T13:28:41.344Z,0.90
2022-11-30T13:33:49.177Z,0.90
2022-11-30T13:39:18.653Z,0.90
2022-11-30T13:44:34.537Z,0.90
2022-11-30T13:49:37.187Z,0.80
2022-11-30T13:54:47.384Z,0.90
2022-11-30T13:59:54.347Z,0.90
2022-11-30T14:05:17.740Z,0.90
2022-11-30T14:10:36.390Z,1.00
2022-11-30T14:15:38.729Z,0.90
2022-11-30T14:21:11.940Z,0.90
2022-11-30T14:26:42.003Z,0.90
2022-11-30T14:32:12.413Z,0.90
2022-11-30T14:37:23.742Z,0.90
2022-11-30T14:42:28.917Z,0.80
2022-11-30T14:47:36.371Z,0.80
2022-11-30T14:53:12.729Z,0.70
2022-11-30T14:58:32.551Z,0.80
2022-11-30T15:03:40.483Z,0.80
2022-11-30T15:08:50.059Z,0.80
2022-11-30T15:13:56.339Z,0.80
2022-11-30T15:19:01.662Z,0.70
2022-11-30T15:24:04.281Z,0.70
2022-11-30T15:29:13.197Z,0.80
2022-11-30T15:34:44.081Z,0.70
2022-11-30T15:39:55.799Z,0.70
2022-11-30T15:45:19.809Z,0.70
2022-11-30T15:50:31.179Z,0.70
2022-11-30T15:55:59.626Z,0.70
2022-11-30T16:01:05.581Z,0.60
2022-11-30T16:06:19.188Z,0.60
2022-11-30T16:11:21.800Z,0.60
2022-11-30T16:16:30.422Z,0.60
2022-11-30T16:21:32.839Z,0.60
2022-11-30T16:26:50.434Z,0.60
2022-11-30T16:31:53.811Z,0.60
2022-11-30T16:36:56.290Z,0.60
2022-11-30T16:41:58.650Z,0.60
2022-11-30T16:47:01.020Z,0.60
2022-11-30T16:52:03.935Z,0.60
2022-11-30T16:57:06.316Z,0.60
2022-11-30T17:02:20.039Z,0.60
2022-11-30T17:07:22.534Z,0.50
2022-11-30T17:12:24.871Z,0.50
2022-11-30T17:17:27.280Z,0.50
2022-11-30T17:22:29.648Z,0.60
2022-11-30T17:27:31.946Z,0.50
2022-11-30T17:32:35.397Z,0.60
2022-11-30T17:37:38.048Z,0.50
2022-11-30T17:42:40.333Z,0.40
2022-11-30T17:47:42.688Z,1.10
2022-11-30T17:52:45.373Z,0.40
2022-11-30T17:57:47.681Z,0.50
2022-11-30T18:02:52.100Z,0.50
2022-11-30T18:07:54.551Z,0.50
2022-11-30T18:12:56.892Z,0.50
2022-11-30T18:18:01.648Z,0.40
2022-11-30T18:23:03.978Z,0.40
2022-11-30T18:28:06.329Z,0.30
2022-11-30T18:33:08.739Z,0.30
2022-11-30T18:38:12.044Z,0.30
2022-11-30T18:43:14.375Z,0.30
2022-11-30T18:48:16.698Z,0.30
2022-11-30T18:53:19.223Z,0.30
2022-11-30T18:58:21.543Z,0.30
2022-11-30T19:03:24.319Z,0.30
2022-11-30T19:08:27.574Z,0.20
2022-11-30T19:13:31.877Z,0.20
2022-11-30T19:18:36.016Z,0.20
2022-11-30T19:23:39.768Z,0.20
2022-11-30T19:28:44.254Z,0.30
2022-11-30T19:33:49.527Z,0.30
2022-11-30T19:38:53.381Z,0.30
2022-11-30T19:44:04.152Z,0.30
2022-11-30T19:49:09.699Z,0.30
2022-11-30T19:54:13.087Z,0.30
2022-11-30T19:59:16.202Z,0.30
2022-11-30T20:04:19.396Z,0.30
2022-11-30T20:09:22.707Z,0.30
2022-11-30T20:14:25.438Z,0.40
2022-11-30T20:19:28.222Z,0.40
2022-11-30T20:24:31.505Z,0.70
2022-11-30T20:29:34.045Z,0.40
2022-11-30T20:34:40.980Z,0.40
2022-11-30T20:39:46.516Z,0.50
2022-11-30T20:44:49.904Z,0.40
2022-11-30T20:49:52.655Z,0.50
2022-11-30T20:54:55.060Z,0.40
2022-11-30T20:59:57.376Z,0.50
2022-11-30T21:04:59.695Z,0.50
2022-11-30T21:10:01.998Z,0.50
2022-11-30T21:15:06.436Z,0.60
2022-11-30T21:20:09.405Z,0.60
2022-11-30T21:25:11.776Z,0.60
2022-11-30T21:30:14.620Z,0.60
2022-11-30T21:35:16.957Z,0.60
2022-11-30T21:40:19.281Z,0.60
2022-11-30T21:45:21.598Z,0.60
2022-11-30T21:50:27.156Z,0.70
2022-11-30T21:55:30.234Z,0.70
2022-11-30T22:00:32.542Z,0.70
2022-11-30T22:05:37.944Z,0.70
2022-11-30T22:10:40.246Z,1.10
2022-11-30T22:15:42.587Z,0.70
2022-11-30T22:20:44.940Z,0.80
2022-11-30T22:25:50.391Z,0.80
2022-11-30T22:30:52.729Z,0.80
2022-11-30T22:35:55.075Z,0.80
2022-11-30T22:41:08.879Z,0.80
2022-11-30T22:46:22.672Z,0.80
2022-11-30T22:51:28.240Z,0.80
2022-11-30T22:56:33.277Z,1.10
2022-11-30T23:01:38.420Z,0.90
2022-11-30T23:06:42.264Z,0.90
2022-11-30T23:11:44.898Z,0.90
2022-11-30T23:16:47.508Z,0.90
2022-11-30T23:21:50.449Z,0.90
2022-11-30T23:26:52.855Z,0.90
2022-11-30T23:31:55.204Z,0.90
2022-11-30T23:36:57.613Z,0.90
2022-11-30T23:41:59.987Z,1.00
2022-11-30T23:47:02.368Z,1.00
2022-11-30T23:52:04.742Z,0.90
2022-11-30T23:57:07.486Z,1.00
